createdAt,value
2023-01-29T00:00:16.120Z,69.80
2023-01-29T00:02:43.924Z,70.30
2023-01-29T00:05:26.594Z,70.00
2023-01-29T00:07:55.114Z,69.70
2023-01-29T00:10:22.985Z,69.70
2023-01-29T00:12:52.020Z,69.80
2023-01-29T00:15:20.939Z,70.40
2023-01-29T00:17:48.549Z,70.40
2023-01-29T00:20:16.763Z,70.20
2023-01-29T00:22:45.590Z,70.10
2023-01-29T00:25:13.169Z,69.90
2023-01-29T00:27:40.686Z,70.00
2023-01-29T00:30:19.549Z,69.90
2023-01-29T00:32:47.358Z,70.00
2023-01-29T00:35:15.228Z,69.90
2023-01-29T00:37:43.537Z,69.90
2023-01-29T00:40:11.370Z,69.90
2023-01-29T00:42:56.924Z,70.10
2023-01-29T00:45:25.325Z,70.10
2023-01-29T00:47:52.863Z,70.30
2023-01-29T00:50:20.407Z,69.70
2023-01-29T00:52:49.979Z,69.80
2023-01-29T00:55:18.763Z,69.90
2023-01-29T00:57:47.255Z,69.90
2023-01-29T01:00:17.193Z,69.70
2023-01-29T01:03:03.036Z,69.70
2023-01-29T01:05:30.626Z,69.60
2023-01-29T01:07:58.767Z,69.40
2023-01-29T01:10:27.964Z,68.90
2023-01-29T01:12:57.954Z,68.60
2023-01-29T01:15:32.447Z,68.10
2023-01-29T01:18:01.272Z,68.30
2023-01-29T01:20:30.355Z,68.10
2023-01-29T01:22:58.073Z,68.00
2023-01-29T01:25:29.887Z,68.00
2023-01-29T01:30:27.000Z,67.40
2023-01-29T01:32:56.350Z,67.60
2023-01-29T01:35:23.905Z,67.10
2023-01-29T01:37:51.450Z,67.10
2023-01-29T01:40:21.332Z,67.00
2023-01-29T01:42:49.941Z,66.80
2023-01-29T01:45:19.732Z,66.70
2023-01-29T01:47:48.457Z,66.60
2023-01-29T01:50:36.096Z,65.80
2023-01-29T01:53:11.886Z,66.10
2023-01-29T01:55:43.365Z,66.00
2023-01-29T01:58:12.739Z,64.70
2023-01-29T02:00:40.440Z,65.80
2023-01-29T02:03:27.211Z,65.40
2023-01-29T02:06:15.513Z,64.10
2023-01-29T02:09:09.517Z,64.50
2023-01-29T02:11:37.666Z,64.10
2023-01-29T02:14:05.655Z,65.20
2023-01-29T02:22:33.109Z,63.60
2023-01-29T02:25:18.929Z,64.10
2023-01-29T02:27:49.693Z,63.30
2023-01-29T02:30:26.365Z,60.30
2023-01-29T02:33:07.835Z,63.30
2023-01-29T02:35:47.652Z,61.40
2023-01-29T02:38:21.474Z,63.00
2023-01-29T02:40:51.720Z,60.10
2023-01-29T02:43:22.848Z,62.60
2023-01-29T02:46:02.035Z,61.30
2023-01-29T02:48:36.442Z,59.50
2023-01-29T02:51:09.299Z,58.60
2023-01-29T02:54:03.280Z,60.50
2023-01-29T02:56:37.772Z,60.20
2023-01-29T02:59:31.583Z,58.50
2023-01-29T03:02:02.645Z,58.70
2023-01-29T03:04:34.222Z,58.60
2023-01-29T03:07:03.775Z,60.60
2023-01-29T03:09:43.631Z,60.40
2023-01-29T03:12:29.609Z,59.80
2023-01-29T03:15:15.189Z,60.40
2023-01-29T03:17:49.261Z,60.00
2023-01-29T03:20:19.352Z,57.60
2023-01-29T03:22:51.715Z,58.80
2023-01-29T03:25:41.778Z,57.70
2023-01-29T03:28:28.746Z,56.60
2023-01-29T03:31:16.540Z,55.80
2023-01-29T03:33:53.527Z,58.10
2023-01-29T03:36:47.696Z,58.20
2023-01-29T03:39:16.790Z,58.00
2023-01-29T03:42:02.830Z,58.40
2023-01-29T03:44:49.807Z,57.50
2023-01-29T03:47:20.528Z,57.20
2023-01-29T03:49:50.037Z,56.30
2023-01-29T03:52:24.789Z,57.30
2023-01-29T03:54:56.413Z,56.10
2023-01-29T03:57:33.567Z,56.40
2023-01-29T04:00:01.096Z,55.60
2023-01-29T04:02:33.104Z,56.20
2023-01-29T04:05:05.015Z,54.00
2023-01-29T04:07:34.434Z,53.70
2023-01-29T04:10:15.886Z,52.80
2023-01-29T04:12:49.136Z,55.60
2023-01-29T04:15:17.541Z,55.70
2023-01-29T04:17:53.532Z,55.90
2023-01-29T04:20:22.066Z,54.90
2023-01-29T04:22:52.978Z,55.10
2023-01-29T04:25:27.327Z,51.30
2023-01-29T04:28:07.914Z,54.70
2023-01-29T04:30:39.118Z,53.80
2023-01-29T04:33:12.583Z,53.00
2023-01-29T04:35:43.378Z,54.40
2023-01-29T04:38:11.678Z,53.90
2023-01-29T04:40:58.565Z,54.70
2023-01-29T04:43:26.090Z,54.70
2023-01-29T04:46:07.011Z,54.20
2023-01-29T04:48:45.128Z,50.50
2023-01-29T04:51:33.704Z,52.10
2023-01-29T04:54:04.142Z,54.20
2023-01-29T04:56:50.905Z,53.30
2023-01-29T04:59:21.944Z,52.30
2023-01-29T05:01:50.550Z,53.40
2023-01-29T05:04:21.576Z,50.70
2023-01-29T05:06:49.798Z,50.40
2023-01-29T05:09:19.548Z,50.40
2023-01-29T05:11:48.205Z,49.10
2023-01-29T05:14:18.499Z,53.10
2023-01-29T05:16:48.102Z,53.50
2023-01-29T05:19:17.565Z,53.20
2023-01-29T05:21:48.152Z,53.30
2023-01-29T05:24:21.347Z,53.00
2023-01-29T05:27:08.938Z,52.30
2023-01-29T05:29:37.392Z,49.60
2023-01-29T05:32:08.081Z,53.00
2023-01-29T05:34:35.660Z,52.30
2023-01-29T05:37:03.531Z,49.70
2023-01-29T05:39:31.441Z,51.10
2023-01-29T05:42:00.369Z,49.20
2023-01-29T05:44:29.465Z,49.90
2023-01-29T05:46:57.238Z,51.80
2023-01-29T05:49:25.312Z,48.50
2023-01-29T05:51:52.990Z,50.40
2023-01-29T05:54:20.637Z,51.50
2023-01-29T05:56:56.521Z,51.50
2023-01-29T05:59:24.415Z,49.90
2023-01-29T06:01:51.950Z,49.40
2023-01-29T06:04:20.357Z,49.50
2023-01-29T06:06:47.885Z,50.20
2023-01-29T06:09:18.612Z,51.20
2023-01-29T06:11:46.312Z,51.60
2023-01-29T06:14:13.841Z,51.10
2023-01-29T06:16:41.813Z,51.80
2023-01-29T06:19:09.585Z,50.80
2023-01-29T06:21:38.248Z,51.50
2023-01-29T06:24:06.394Z,49.20
2023-01-29T06:26:34.036Z,48.40
2023-01-29T06:29:02.546Z,50.70
2023-01-29T06:31:39.144Z,50.00
2023-01-29T06:34:08.393Z,49.70
2023-01-29T06:36:36.022Z,51.10
2023-01-29T06:39:04.256Z,49.70
2023-01-29T06:41:31.941Z,51.10
2023-01-29T06:43:59.608Z,49.30
2023-01-29T06:46:27.338Z,50.60
2023-01-29T06:48:54.873Z,48.70
2023-01-29T06:51:24.023Z,50.50
2023-01-29T06:53:52.544Z,49.60
2023-01-29T06:56:20.329Z,48.20
2023-01-29T06:58:47.955Z,49.00
2023-01-29T07:01:29.293Z,46.60
2023-01-29T07:04:02.527Z,50.00
2023-01-29T07:06:34.198Z,49.20
2023-01-29T07:09:01.733Z,47.30
2023-01-29T07:11:29.507Z,48.80
2023-01-29T07:13:57.574Z,48.60
2023-01-29T07:16:26.922Z,49.50
2023-01-29T07:18:54.630Z,50.40
2023-01-29T07:21:22.214Z,50.10
2023-01-29T07:23:49.809Z,49.80
2023-01-29T07:26:22.749Z,48.60
2023-01-29T07:28:50.230Z,50.10
2023-01-29T07:31:17.932Z,49.70
2023-01-29T07:33:45.856Z,47.60
2023-01-29T07:36:21.172Z,50.00
2023-01-29T07:38:53.310Z,49.00
2023-01-29T07:41:21.113Z,50.20
2023-01-29T07:43:48.831Z,49.90
2023-01-29T07:46:16.550Z,48.60
2023-01-29T07:48:44.179Z,49.20
2023-01-29T07:51:12.203Z,50.20
2023-01-29T07:53:39.785Z,49.30
2023-01-29T07:56:08.014Z,47.40
2023-01-29T07:58:36.869Z,46.40
2023-01-29T08:01:11.158Z,49.00
2023-01-29T08:03:39.138Z,50.20
2023-01-29T08:06:07.261Z,47.10
2023-01-29T08:08:35.663Z,49.50
2023-01-29T08:11:04.860Z,47.80
2023-01-29T08:13:32.992Z,48.40
2023-01-29T08:16:04.556Z,48.30
2023-01-29T08:18:33.503Z,48.30
2023-01-29T08:21:01.598Z,48.50
2023-01-29T08:23:30.262Z,48.40
2023-01-29T08:25:58.743Z,49.00
2023-01-29T08:28:27.439Z,48.70
2023-01-29T08:30:56.135Z,47.70
2023-01-29T08:33:38.060Z,48.70
2023-01-29T08:36:06.565Z,49.70
2023-01-29T08:38:34.084Z,48.00
2023-01-29T08:41:01.803Z,47.10
2023-01-29T08:43:29.945Z,48.10
2023-01-29T08:45:58.063Z,47.90
2023-01-29T08:48:26.572Z,48.00
2023-01-29T08:50:57.777Z,48.50
2023-01-29T08:53:26.552Z,50.10
2023-01-29T08:55:54.545Z,49.70
2023-01-29T08:58:22.400Z,49.60
2023-01-29T09:00:50.081Z,48.50
2023-01-29T09:03:17.604Z,49.30
2023-01-29T09:05:47.228Z,47.70
2023-01-29T09:08:15.721Z,48.90
2023-01-29T09:10:43.311Z,47.10
2023-01-29T09:13:11.789Z,49.40
2023-01-29T09:15:39.257Z,50.10
2023-01-29T09:18:06.965Z,48.90
2023-01-29T09:20:34.924Z,47.90
2023-01-29T09:23:06.493Z,47.90
2023-01-29T09:25:34.068Z,47.70
2023-01-29T09:28:03.633Z,47.60
2023-01-29T09:30:34.727Z,48.70
2023-01-29T09:33:05.376Z,49.20
2023-01-29T09:35:32.981Z,50.80
2023-01-29T09:38:00.499Z,48.10
2023-01-29T09:40:33.968Z,50.20
2023-01-29T09:43:07.931Z,48.90
2023-01-29T09:45:37.216Z,48.20
2023-01-29T09:48:06.197Z,48.60
2023-01-29T09:50:39.108Z,47.90
2023-01-29T09:53:16.256Z,47.70
2023-01-29T09:55:52.659Z,47.60
2023-01-29T09:58:32.577Z,47.90
2023-01-29T10:01:00.455Z,48.60
2023-01-29T10:03:35.241Z,49.30
2023-01-29T10:06:11.641Z,48.80
2023-01-29T10:08:51.156Z,48.00
2023-01-29T10:11:41.706Z,48.50
2023-01-29T10:14:18.855Z,49.20
2023-01-29T10:17:05.092Z,49.40
2023-01-29T10:19:42.596Z,48.00
2023-01-29T10:22:28.682Z,48.90
2023-01-29T10:25:06.633Z,48.10
2023-01-29T10:27:36.218Z,49.10
2023-01-29T10:30:07.004Z,49.30
2023-01-29T10:32:36.206Z,48.80
2023-01-29T10:35:05.483Z,48.50
2023-01-29T10:37:54.226Z,49.90
2023-01-29T10:40:30.550Z,50.60
2023-01-29T10:43:13.364Z,50.60
2023-01-29T10:45:40.827Z,49.80
2023-01-29T10:48:27.950Z,50.60
2023-01-29T10:51:03.673Z,50.40
2023-01-29T10:53:41.469Z,50.40
2023-01-29T10:56:23.135Z,51.30
2023-01-29T10:58:54.201Z,50.60
2023-01-29T11:01:22.631Z,51.10
2023-01-29T11:04:02.275Z,51.40
2023-01-29T11:06:36.742Z,51.40
2023-01-29T11:09:10.199Z,51.30
2023-01-29T11:11:59.801Z,52.20
2023-01-29T11:14:45.894Z,51.90
2023-01-29T11:17:20.566Z,51.80
2023-01-29T11:19:49.275Z,52.00
2023-01-29T11:22:18.830Z,52.10
2023-01-29T11:24:47.656Z,51.70
2023-01-29T11:27:18.471Z,52.20
2023-01-29T11:29:48.349Z,52.30
2023-01-29T11:32:26.472Z,52.40
2023-01-29T11:34:58.952Z,52.90
2023-01-29T11:37:46.506Z,53.00
2023-01-29T11:40:20.262Z,53.40
2023-01-29T11:42:48.363Z,53.10
2023-01-29T11:45:26.209Z,53.30
2023-01-29T11:47:55.004Z,53.40
2023-01-29T11:50:27.850Z,53.40
2023-01-29T11:52:55.594Z,53.80
2023-01-29T11:55:24.800Z,53.90
2023-01-29T11:57:58.506Z,53.90
2023-01-29T12:00:48.169Z,53.90
2023-01-29T12:03:30.895Z,53.50
2023-01-29T12:06:01.452Z,53.70
2023-01-29T12:08:34.333Z,53.90
2023-01-29T12:11:14.995Z,54.00
2023-01-29T12:13:54.691Z,54.00
2023-01-29T12:16:26.938Z,54.20
2023-01-29T12:19:30.301Z,54.20
2023-01-29T12:21:58.541Z,54.40
2023-01-29T12:24:33.228Z,54.30
2023-01-29T12:27:17.850Z,54.40
2023-01-29T12:29:48.516Z,55.10
2023-01-29T12:32:25.256Z,54.70
2023-01-29T12:35:04.150Z,54.60
2023-01-29T12:37:32.431Z,54.70
2023-01-29T12:40:00.840Z,54.70
2023-01-29T12:42:28.318Z,54.80
2023-01-29T12:44:58.941Z,54.90
2023-01-29T12:47:52.604Z,54.80
2023-01-29T12:50:22.927Z,54.90
2023-01-29T12:52:58.139Z,54.50
2023-01-29T12:55:28.254Z,54.50
2023-01-29T12:57:58.757Z,54.80
2023-01-29T13:00:28.843Z,54.80
2023-01-29T13:02:56.403Z,54.90
2023-01-29T13:05:27.106Z,55.00
2023-01-29T13:08:01.051Z,55.10
2023-01-29T13:10:35.670Z,55.10
2023-01-29T13:13:11.949Z,55.20
2023-01-29T13:15:41.290Z,55.20
2023-01-29T13:18:17.952Z,55.10
2023-01-29T13:20:47.822Z,55.30
2023-01-29T13:23:21.470Z,55.30
2023-01-29T13:25:53.398Z,55.30
2023-01-29T13:28:22.936Z,55.50
2023-01-29T13:31:09.187Z,55.30
2023-01-29T13:33:37.618Z,55.30
2023-01-29T13:36:06.440Z,55.30
2023-01-29T13:38:35.841Z,54.90
2023-01-29T13:41:05.289Z,55.00
2023-01-29T13:43:41.172Z,55.60
2023-01-29T13:46:15.189Z,55.50
2023-01-29T13:48:44.917Z,56.20
2023-01-29T13:51:19.749Z,55.40
2023-01-29T13:53:58.628Z,55.50
2023-01-29T13:56:35.217Z,55.60
2023-01-29T13:59:05.435Z,55.70
2023-01-29T14:01:48.117Z,55.60
2023-01-29T14:04:29.431Z,55.90
2023-01-29T14:07:03.439Z,55.90
2023-01-29T14:09:39.763Z,55.80
2023-01-29T14:12:36.623Z,55.80
2023-01-29T14:15:21.438Z,56.10
2023-01-29T14:17:58.258Z,56.20
2023-01-29T14:20:43.180Z,56.30
2023-01-29T14:23:32.843Z,56.40
2023-01-29T14:26:02.433Z,56.50
2023-01-29T14:28:31.942Z,56.60
2023-01-29T14:31:00.289Z,56.70
2023-01-29T14:33:39.799Z,56.80
2023-01-29T14:36:13.832Z,57.00
2023-01-29T14:38:46.221Z,57.00
2023-01-29T14:41:23.018Z,57.00
2023-01-29T14:43:50.621Z,57.10
2023-01-29T14:46:36.802Z,57.30
2023-01-29T14:49:04.367Z,57.40
2023-01-29T14:51:37.821Z,57.30
2023-01-29T14:54:21.472Z,57.30
2023-01-29T14:56:58.754Z,57.40
2023-01-29T14:59:37.891Z,57.60
2023-01-29T15:02:16.151Z,57.60
2023-01-29T15:04:51.665Z,57.60
2023-01-29T15:07:28.363Z,57.70
2023-01-29T15:10:01.389Z,57.90
2023-01-29T15:12:49.898Z,58.10
2023-01-29T15:15:35.827Z,58.20
2023-01-29T15:18:13.831Z,57.90
2023-01-29T15:20:42.104Z,58.00
2023-01-29T15:23:28.847Z,58.10
2023-01-29T15:25:58.655Z,58.00
2023-01-29T15:28:27.284Z,58.20
2023-01-29T15:30:55.757Z,58.30
2023-01-29T15:33:23.583Z,58.20
2023-01-29T15:36:06.307Z,58.30
2023-01-29T15:38:34.622Z,58.40
2023-01-29T15:41:04.379Z,58.40
2023-01-29T15:43:35.558Z,58.70
2023-01-29T15:46:05.515Z,58.80
2023-01-29T15:48:38.101Z,58.70
2023-01-29T15:51:09.113Z,58.70
2023-01-29T15:54:06.341Z,58.80
2023-01-29T15:56:59.844Z,58.90
2023-01-29T15:59:34.823Z,58.80
2023-01-29T16:02:20.409Z,58.80
2023-01-29T16:04:48.980Z,59.00
2023-01-29T16:07:16.588Z,58.80
2023-01-29T16:09:44.200Z,58.90
2023-01-29T16:12:12.855Z,59.00
2023-01-29T16:14:42.049Z,59.00
2023-01-29T16:17:28.031Z,58.80
2023-01-29T16:20:02.363Z,58.90
2023-01-29T16:22:32.984Z,58.80
2023-01-29T16:25:09.264Z,58.80
2023-01-29T16:27:36.926Z,58.80
2023-01-29T16:30:05.581Z,59.00
2023-01-29T16:32:33.193Z,58.90
2023-01-29T16:35:00.842Z,59.00
2023-01-29T16:37:32.902Z,59.10
2023-01-29T16:40:00.568Z,59.10
2023-01-29T16:42:28.951Z,59.10
2023-01-29T16:44:59.455Z,59.30
2023-01-29T16:47:34.680Z,59.30
2023-01-29T16:50:20.653Z,59.30
2023-01-29T16:53:07.185Z,59.90
2023-01-29T16:55:43.046Z,59.30
2023-01-29T16:58:18.592Z,59.20
2023-01-29T17:00:47.673Z,59.10
2023-01-29T17:03:16.405Z,59.20
2023-01-29T17:05:44.188Z,59.20
2023-01-29T17:08:23.128Z,59.10
2023-01-29T17:10:50.693Z,59.20
2023-01-29T17:13:36.388Z,59.20
2023-01-29T17:16:14.930Z,59.40
2023-01-29T17:18:42.411Z,59.40
2023-01-29T17:21:09.874Z,59.40
2023-01-29T17:23:37.412Z,59.40
2023-01-29T17:26:07.968Z,59.50
2023-01-29T17:28:35.509Z,59.70
2023-01-29T17:31:06.519Z,59.70
2023-01-29T17:33:36.056Z,60.20
2023-01-29T17:36:03.855Z,59.90
2023-01-29T17:38:31.359Z,60.20
2023-01-29T17:41:01.022Z,60.50
2023-01-29T17:43:28.843Z,60.30
2023-01-29T17:45:56.431Z,60.80
2023-01-29T17:48:25.990Z,61.20
2023-01-29T17:50:54.645Z,61.40
2023-01-29T17:53:24.887Z,61.50
2023-01-29T17:55:54.008Z,61.10
2023-01-29T17:58:23.778Z,60.70
2023-01-29T18:00:52.523Z,61.30
2023-01-29T18:03:20.372Z,61.00
2023-01-29T18:05:48.769Z,61.50
2023-01-29T18:08:33.420Z,61.70
2023-01-29T18:11:01.179Z,61.50
2023-01-29T18:13:28.843Z,61.30
2023-01-29T18:15:56.381Z,61.10
2023-01-29T18:18:24.626Z,61.60
2023-01-29T18:20:52.569Z,62.30
2023-01-29T18:23:20.137Z,62.10
2023-01-29T18:25:47.851Z,61.70
2023-01-29T18:28:17.297Z,61.90
2023-01-29T18:30:48.792Z,62.00
2023-01-29T18:33:17.878Z,62.60
2023-01-29T18:35:45.725Z,61.90
2023-01-29T18:38:13.241Z,62.80
2023-01-29T18:40:41.549Z,62.50
2023-01-29T18:43:10.293Z,62.90
2023-01-29T18:45:37.857Z,62.50
2023-01-29T18:48:05.585Z,63.30
2023-01-29T18:50:33.253Z,63.60
2023-01-29T18:53:00.852Z,63.20
2023-01-29T18:55:28.411Z,62.70
2023-01-29T18:58:27.103Z,62.90
2023-01-29T19:00:44.641Z,63.40
2023-01-29T19:03:12.314Z,63.60
2023-01-29T19:05:39.849Z,63.40
2023-01-29T19:08:07.437Z,63.90
2023-01-29T19:10:35.333Z,63.10
2023-01-29T19:13:05.739Z,63.60
2023-01-29T19:15:35.431Z,64.20
2023-01-29T19:18:03.278Z,64.20
2023-01-29T19:20:30.831Z,63.60
2023-01-29T19:22:58.451Z,63.80
2023-01-29T19:25:26.124Z,63.50
2023-01-29T19:27:54.513Z,63.20
2023-01-29T19:30:22.119Z,63.30
2023-01-29T19:32:49.723Z,63.10
2023-01-29T19:35:17.592Z,62.90
2023-01-29T19:37:45.570Z,63.20
2023-01-29T19:40:13.158Z,63.40
2023-01-29T19:42:41.232Z,63.40
2023-01-29T19:45:09.394Z,63.90
2023-01-29T19:47:40.867Z,63.80
2023-01-29T19:50:09.535Z,64.00
2023-01-29T19:52:52.314Z,63.50
2023-01-29T19:55:21.788Z,64.10
2023-01-29T19:57:52.426Z,64.00
2023-01-29T20:00:20.577Z,64.60
2023-01-29T20:02:48.465Z,64.40
2023-01-29T20:05:18.499Z,64.20
2023-01-29T20:07:46.417Z,63.90
2023-01-29T20:10:17.773Z,63.90
2023-01-29T20:12:46.208Z,64.20
2023-01-29T20:15:14.305Z,64.50
2023-01-29T20:17:42.887Z,64.30
2023-01-29T20:20:10.862Z,63.80
2023-01-29T20:22:38.432Z,63.60
2023-01-29T20:25:06.234Z,65.50
2023-01-29T20:27:33.796Z,64.90
2023-01-29T20:30:01.338Z,65.10
2023-01-29T20:32:29.800Z,64.70
2023-01-29T20:34:57.357Z,64.30
2023-01-29T20:37:25.687Z,64.40
2023-01-29T20:39:53.602Z,64.20
2023-01-29T20:42:21.486Z,64.30
2023-01-29T20:44:48.998Z,64.00
2023-01-29T20:47:16.568Z,64.00
2023-01-29T20:49:44.080Z,64.00
2023-01-29T20:52:13.410Z,64.00
2023-01-29T20:54:41.057Z,64.80
2023-01-29T20:57:09.491Z,64.50
2023-01-29T20:59:37.041Z,64.00
2023-01-29T21:02:04.612Z,63.80
2023-01-29T21:04:32.281Z,63.60
2023-01-29T21:07:00.813Z,63.10
2023-01-29T21:09:29.103Z,62.40
2023-01-29T21:11:57.505Z,62.40
2023-01-29T21:14:25.078Z,62.70
2023-01-29T21:16:53.421Z,62.50
2023-01-29T21:19:21.403Z,62.30
2023-01-29T21:21:49.722Z,61.90
2023-01-29T21:24:19.089Z,62.00
2023-01-29T21:26:47.095Z,61.40
2023-01-29T21:29:15.693Z,61.70
2023-01-29T21:31:43.476Z,60.00
2023-01-29T21:34:11.386Z,60.10
2023-01-29T21:36:40.014Z,61.10
2023-01-29T21:39:27.778Z,61.70
2023-01-29T21:42:13.933Z,60.60
2023-01-29T21:44:41.609Z,60.70
2023-01-29T21:47:15.073Z,60.70
2023-01-29T21:49:43.362Z,60.60
2023-01-29T21:52:11.979Z,60.00
2023-01-29T21:54:45.954Z,60.90
2023-01-29T21:57:16.026Z,60.20
2023-01-29T21:59:46.721Z,59.00
2023-01-29T22:02:17.921Z,59.90
2023-01-29T22:04:46.412Z,60.60
2023-01-29T22:07:14.116Z,60.50
2023-01-29T22:09:41.699Z,60.50
2023-01-29T22:12:10.418Z,59.30
2023-01-29T22:14:38.771Z,59.50
2023-01-29T22:17:06.705Z,59.80
2023-01-29T22:19:35.487Z,60.60
2023-01-29T22:22:02.981Z,60.30
2023-01-29T22:24:30.538Z,59.70
2023-01-29T22:26:58.118Z,59.90
2023-01-29T22:29:25.644Z,60.20
2023-01-29T22:31:53.150Z,59.80
2023-01-29T22:34:20.745Z,60.50
2023-01-29T22:36:48.252Z,60.90
2023-01-29T22:39:16.552Z,60.70
2023-01-29T22:41:44.129Z,60.00
2023-01-29T22:44:11.863Z,60.50
2023-01-29T22:46:39.425Z,60.70
2023-01-29T22:49:07.141Z,60.70
2023-01-29T22:51:35.433Z,61.00
2023-01-29T22:54:02.967Z,61.20
2023-01-29T22:56:31.395Z,61.40
2023-01-29T22:58:59.849Z,61.60
2023-01-29T23:01:29.609Z,61.90
2023-01-29T23:03:57.286Z,62.20
2023-01-29T23:06:24.865Z,62.30
2023-01-29T23:08:52.482Z,63.70
2023-01-29T23:11:21.515Z,63.00
2023-01-29T23:13:50.179Z,63.40
2023-01-29T23:16:18.319Z,63.70
2023-01-29T23:18:49.417Z,64.30
2023-01-29T23:21:18.008Z,64.20
2023-01-29T23:23:45.624Z,63.80
2023-01-29T23:26:31.875Z,64.10
2023-01-29T23:28:59.818Z,64.10
2023-01-29T23:31:27.403Z,64.40
2023-01-29T23:33:55.862Z,65.00
2023-01-29T23:36:24.187Z,64.40
2023-01-29T23:38:52.495Z,64.70
2023-01-29T23:41:20.185Z,66.30
2023-01-29T23:43:48.600Z,65.80
2023-01-29T23:46:16.146Z,66.90
2023-01-29T23:48:44.531Z,65.90
2023-01-29T23:51:12.139Z,65.50
2023-01-29T23:53:39.650Z,65.90
2023-01-29T23:56:08.590Z,67.30
2023-01-29T23:58:36.213Z,65.90
